createdAt,value
2019-01-12T00:00:50.158Z,64.37
2019-01-12T00:03:39.022Z,61.90
2019-01-12T00:06:29.036Z,90.77
2019-01-12T00:09:18.112Z,79.70
2019-01-12T00:12:07.540Z,85.90
2019-01-12T00:14:56.935Z,107.67
2019-01-12T00:17:46.765Z,72.97
2019-01-12T00:20:36.283Z,75.97
2019-01-12T00:23:25.192Z,63.13
2019-01-12T00:26:14.969Z,90.90
2019-01-12T00:29:04.541Z,145.10
2019-01-12T00:31:53.894Z,113.53
2019-01-12T00:34:43.739Z,107.20
2019-01-12T00:37:33.267Z,103.70
2019-01-12T00:40:22.866Z,110.83
2019-01-12T00:43:12.147Z,96.70
2019-01-12T00:46:01.458Z,103.00
2019-01-12T00:48:50.853Z,99.20
2019-01-12T00:51:40.287Z,96.13
2019-01-12T00:54:29.365Z,92.20
2019-01-12T00:57:18.789Z,86.80
2019-01-12T01:00:12.585Z,95.37
2019-01-12T01:03:01.946Z,98.80
2019-01-12T01:05:51.337Z,94.07
2019-01-12T01:08:40.614Z,95.80
2019-01-12T01:11:29.504Z,100.03
2019-01-12T01:14:19.018Z,109.83
2019-01-12T01:17:08.688Z,97.80
2019-01-12T01:20:02.571Z,103.60
2019-01-12T01:22:52.932Z,90.03
2019-01-12T01:25:42.475Z,79.70
2019-01-12T01:28:31.936Z,92.30
2019-01-12T01:31:20.734Z,80.53
2019-01-12T01:34:10.434Z,109.57
2019-01-12T01:37:00.343Z,87.00
2019-01-12T01:39:49.508Z,78.87
2019-01-12T01:42:39.150Z,82.27
2019-01-12T01:45:28.928Z,90.83
2019-01-12T01:48:18.232Z,110.03
2019-01-12T01:51:10.061Z,113.23
2019-01-12T01:53:59.414Z,112.83
2019-01-12T01:56:48.759Z,100.93
2019-01-12T01:59:38.066Z,90.03
2019-01-12T02:02:27.460Z,83.40
2019-01-12T02:05:16.763Z,81.33
2019-01-12T02:08:06.391Z,77.17
2019-01-12T02:10:55.187Z,81.93
2019-01-12T02:13:44.415Z,87.10
2019-01-12T02:16:33.800Z,125.50
2019-01-12T02:19:25.203Z,118.93
2019-01-12T02:22:14.667Z,105.60
2019-01-12T02:25:04.085Z,130.10
2019-01-12T02:27:55.900Z,104.63
2019-01-12T02:30:45.432Z,93.43
2019-01-12T02:33:34.719Z,73.47
2019-01-12T02:36:24.005Z,67.30
2019-01-12T02:39:13.256Z,71.40
2019-01-12T02:42:02.250Z,72.90
2019-01-12T02:44:51.934Z,85.80
2019-01-12T02:47:41.526Z,79.67
2019-01-12T02:50:31.937Z,75.90
2019-01-12T02:53:21.403Z,63.93
2019-01-12T02:56:10.663Z,72.40
2019-01-12T02:58:59.969Z,66.63
2019-01-12T03:01:49.350Z,79.07
2019-01-12T03:04:38.420Z,87.83
2019-01-12T03:07:27.874Z,93.97
2019-01-12T03:10:18.556Z,82.27
2019-01-12T03:13:07.345Z,99.80
2019-01-12T03:15:56.445Z,72.50
2019-01-12T03:18:45.724Z,76.97
2019-01-12T03:21:35.196Z,126.67
2019-01-12T03:24:24.728Z,157.30
2019-01-12T03:27:13.993Z,92.03
2019-01-12T03:30:03.227Z,86.17
2019-01-12T03:32:52.814Z,92.70
2019-01-12T03:35:42.069Z,111.63
2019-01-12T03:38:31.575Z,155.67
2019-01-12T03:41:23.986Z,120.80
2019-01-12T03:44:13.718Z,133.17
2019-01-12T03:47:02.970Z,114.27
2019-01-12T03:49:52.487Z,108.60
2019-01-12T03:52:43.043Z,93.57
2019-01-12T03:55:32.377Z,100.83
2019-01-12T03:58:21.703Z,94.83
2019-01-12T04:01:11.459Z,89.13
2019-01-12T04:04:00.878Z,88.73
2019-01-12T04:06:49.868Z,85.70
2019-01-12T04:09:39.117Z,136.67
2019-01-12T04:12:31.884Z,100.07
2019-01-12T04:15:21.487Z,100.77
2019-01-12T04:18:10.694Z,116.87
2019-01-12T04:20:59.997Z,113.53
2019-01-12T04:23:49.136Z,98.93
2019-01-12T04:26:38.821Z,171.30
2019-01-12T04:29:28.972Z,107.23
2019-01-12T04:32:18.336Z,105.87
2019-01-12T04:35:08.577Z,119.57
2019-01-12T04:37:57.992Z,133.00
2019-01-12T04:40:47.049Z,139.37
2019-01-12T04:43:36.935Z,125.67
2019-01-12T04:46:26.804Z,116.10
2019-01-12T04:49:16.159Z,106.80
2019-01-12T04:52:06.173Z,237.80
2019-01-12T04:54:57.082Z,360.90
2019-01-12T04:57:46.514Z,239.00
2019-01-12T05:00:35.795Z,199.53
2019-01-12T05:03:25.291Z,173.47
2019-01-12T05:06:14.755Z,238.50
2019-01-12T05:09:05.502Z,130.40
2019-01-12T05:11:54.545Z,153.13
2019-01-12T05:14:44.231Z,157.93
2019-01-12T05:17:34.656Z,147.60
2019-01-12T05:20:24.278Z,147.33
2019-01-12T05:23:13.538Z,171.67
2019-01-12T05:26:02.986Z,156.07
2019-01-12T05:28:51.962Z,140.57
2019-01-12T05:31:44.605Z,106.83
2019-01-12T05:34:39.429Z,83.97
2019-01-12T05:37:28.987Z,62.77
2019-01-12T05:40:18.645Z,55.27
2019-01-12T05:43:08.395Z,120.20
2019-01-12T05:45:58.142Z,171.20
2019-01-12T05:48:47.609Z,102.87
2019-01-12T05:51:39.297Z,241.57
2019-01-12T05:54:32.026Z,206.80
2019-01-12T05:57:22.458Z,128.50
2019-01-12T06:00:29.878Z,93.43
2019-01-12T06:03:19.007Z,115.33
2019-01-12T06:06:08.969Z,89.30
2019-01-12T06:08:58.541Z,154.47
2019-01-12T06:11:48.098Z,183.20
2019-01-12T06:14:37.740Z,166.07
2019-01-12T06:17:26.998Z,99.77
2019-01-12T06:20:16.874Z,106.63
2019-01-12T06:23:06.281Z,130.27
2019-01-12T06:25:55.860Z,188.17
2019-01-12T06:28:45.382Z,126.10
2019-01-12T06:31:35.145Z,154.67
2019-01-12T06:34:24.512Z,195.43
2019-01-12T06:37:14.263Z,140.27
2019-01-12T06:40:06.252Z,181.63
2019-01-12T06:42:55.818Z,286.83
2019-01-12T06:45:45.674Z,462.42
2019-01-12T06:48:35.160Z,378.37
2019-01-12T06:51:24.505Z,334.10
2019-01-12T06:54:13.493Z,229.90
2019-01-12T06:57:03.486Z,272.23
2019-01-12T06:59:52.957Z,200.93
2019-01-12T07:02:42.690Z,174.63
2019-01-12T07:05:32.795Z,278.67
2019-01-12T07:08:22.244Z,178.40
2019-01-12T07:11:11.665Z,210.87
2019-01-12T07:14:01.382Z,230.70
2019-01-12T07:16:50.926Z,270.10
2019-01-12T07:19:40.129Z,231.40
2019-01-12T07:22:29.766Z,230.10
2019-01-12T07:25:19.462Z,274.83
2019-01-12T07:28:08.387Z,285.77
2019-01-12T07:30:57.431Z,279.73
2019-01-12T07:33:46.777Z,252.57
2019-01-12T07:36:36.378Z,297.80
2019-01-12T07:39:25.779Z,248.20
2019-01-12T07:42:16.581Z,415.93
2019-01-12T07:45:06.768Z,258.80
2019-01-12T07:47:55.783Z,262.87
2019-01-12T07:50:45.038Z,98.43
2019-01-12T07:53:34.125Z,115.57
2019-01-12T07:56:24.695Z,203.80
2019-01-12T07:59:14.835Z,314.93
2019-01-12T08:02:04.228Z,245.47
2019-01-12T08:04:53.707Z,230.20
2019-01-12T08:07:43.255Z,307.70
2019-01-12T08:10:32.973Z,189.77
2019-01-12T08:13:22.557Z,134.03
2019-01-12T08:16:11.625Z,133.40
2019-01-12T08:19:00.946Z,162.70
2019-01-12T08:21:50.757Z,237.67
2019-01-12T08:24:40.143Z,97.10
2019-01-12T08:27:28.744Z,329.03
2019-01-12T08:30:18.984Z,130.00
2019-01-12T08:33:08.590Z,253.23
2019-01-12T08:35:57.930Z,144.47
2019-01-12T08:38:47.310Z,150.57
2019-01-12T08:41:39.001Z,97.40
2019-01-12T08:44:29.468Z,120.07
2019-01-12T08:47:18.762Z,119.77
2019-01-12T08:50:11.287Z,140.00
2019-01-12T08:53:00.558Z,75.80
2019-01-12T08:55:49.678Z,97.97
2019-01-12T08:58:39.039Z,135.50
2019-01-12T09:01:27.935Z,135.93
2019-01-12T09:04:17.426Z,79.10
2019-01-12T09:07:06.110Z,91.93
2019-01-12T09:09:55.357Z,131.03
2019-01-12T09:12:46.797Z,111.43
2019-01-12T09:15:36.243Z,175.83
2019-01-12T09:18:25.858Z,157.53
2019-01-12T09:21:15.163Z,248.10
2019-01-12T09:24:04.925Z,219.47
2019-01-12T09:26:54.262Z,244.57
2019-01-12T09:29:44.093Z,247.47
2019-01-12T09:32:33.534Z,180.63
2019-01-12T09:35:22.968Z,178.63
2019-01-12T09:38:12.401Z,123.90
2019-01-12T09:41:01.894Z,65.60
2019-01-12T09:43:51.421Z,109.07
2019-01-12T09:46:40.770Z,61.30
2019-01-12T09:49:29.958Z,72.90
2019-01-12T09:52:19.544Z,65.00
2019-01-12T09:55:09.030Z,143.73
2019-01-12T09:57:58.358Z,55.30
2019-01-12T10:00:47.592Z,52.67
2019-01-12T10:03:37.543Z,133.73
2019-01-12T10:06:26.599Z,74.93
2019-01-12T10:09:15.754Z,91.80
2019-01-12T10:12:05.124Z,48.50
2019-01-12T10:14:54.763Z,52.27
2019-01-12T10:17:44.122Z,69.60
2019-01-12T10:20:33.506Z,60.00
2019-01-12T10:23:22.777Z,67.43
2019-01-12T10:26:12.148Z,88.33
2019-01-12T10:29:01.385Z,77.33
2019-01-12T10:31:50.698Z,86.00
2019-01-12T10:34:40.101Z,69.67
2019-01-12T10:37:29.979Z,94.47
2019-01-12T10:40:19.962Z,55.60
2019-01-12T10:43:09.264Z,116.70
2019-01-12T10:45:58.820Z,88.47
2019-01-12T10:48:47.604Z,76.53
2019-01-12T10:51:37.162Z,63.37
2019-01-12T10:54:26.491Z,49.63
2019-01-12T10:57:15.537Z,95.87
2019-01-12T11:00:08.043Z,43.30
2019-01-12T11:02:57.823Z,39.70
2019-01-12T11:05:47.116Z,91.40
2019-01-12T11:08:36.685Z,158.20
2019-01-12T11:11:25.660Z,88.00
2019-01-12T11:14:14.930Z,50.47
2019-01-12T11:17:04.165Z,43.93
2019-01-12T11:19:54.006Z,97.37
2019-01-12T11:22:43.465Z,123.90
2019-01-12T11:25:32.775Z,80.23
2019-01-12T11:28:21.529Z,50.43
2019-01-12T11:31:12.092Z,79.53
2019-01-12T11:34:01.437Z,66.70
2019-01-12T11:36:50.373Z,111.83
2019-01-12T11:39:39.701Z,53.97
2019-01-12T11:42:28.918Z,142.13
2019-01-12T11:45:19.101Z,84.07
2019-01-12T11:48:08.630Z,67.10
2019-01-12T11:51:06.442Z,42.40
2019-01-12T11:53:56.005Z,54.30
2019-01-12T11:56:45.560Z,239.70
2019-01-12T11:59:35.044Z,42.73
2019-01-12T12:02:24.498Z,57.30
2019-01-12T12:05:13.867Z,41.30
2019-01-12T12:08:02.690Z,28.53
2019-01-12T12:10:51.919Z,23.27
2019-01-12T12:13:41.184Z,46.50
2019-01-12T12:16:30.438Z,53.33
2019-01-12T12:19:19.978Z,34.03
2019-01-12T12:22:09.213Z,50.57
2019-01-12T12:24:58.507Z,95.37
2019-01-12T12:27:47.251Z,100.87
2019-01-12T12:30:36.556Z,68.90
2019-01-12T12:33:25.844Z,43.63
2019-01-12T12:36:15.078Z,34.63
2019-01-12T12:39:07.152Z,40.10
2019-01-12T12:41:57.071Z,38.77
2019-01-12T12:44:46.655Z,36.73
2019-01-12T12:47:35.645Z,29.70
2019-01-12T12:50:24.897Z,24.20
2019-01-12T12:53:14.071Z,32.97
2019-01-12T12:56:03.389Z,36.57
2019-01-12T12:58:53.148Z,29.40
2019-01-12T13:01:42.367Z,37.73
2019-01-12T13:04:31.697Z,44.87
2019-01-12T13:07:02.545Z,42.03
2019-01-12T13:09:33.401Z,35.97
2019-01-12T13:12:04.671Z,61.47
2019-01-12T13:14:35.532Z,51.60
2019-01-12T13:17:06.485Z,57.27
2019-01-12T13:19:37.378Z,48.63
2019-01-12T13:22:08.215Z,43.87
2019-01-12T13:24:39.406Z,31.90
2019-01-12T13:27:10.355Z,26.87
2019-01-12T13:29:41.264Z,20.77
2019-01-12T13:32:12.109Z,22.10
2019-01-12T13:34:43.000Z,28.43
2019-01-12T13:37:13.860Z,26.97
2019-01-12T13:39:44.722Z,102.43
2019-01-12T13:42:15.682Z,38.77
2019-01-12T13:44:46.558Z,25.70
2019-01-12T13:47:20.981Z,29.83
2019-01-12T13:49:49.977Z,40.83
2019-01-12T13:52:20.821Z,33.30
2019-01-12T13:54:52.996Z,48.73
2019-01-12T13:57:24.178Z,38.50
2019-01-12T13:59:55.044Z,39.27
2019-01-12T14:02:25.889Z,44.80
2019-01-12T14:04:56.785Z,49.77
2019-01-12T14:07:27.639Z,57.87
2019-01-12T14:09:58.488Z,68.73
2019-01-12T14:12:30.718Z,51.40
2019-01-12T14:15:01.577Z,60.33
2019-01-12T14:17:32.433Z,65.73
2019-01-12T14:20:03.434Z,91.20
2019-01-12T14:22:34.282Z,47.17
2019-01-12T14:25:06.057Z,65.10
2019-01-12T14:27:37.071Z,55.77
2019-01-12T14:30:15.365Z,53.90
2019-01-12T14:32:43.725Z,49.63
2019-01-12T14:35:15.264Z,50.80
2019-01-12T14:37:46.307Z,83.53
2019-01-12T14:40:18.514Z,44.67
2019-01-12T14:42:49.492Z,63.93
2019-01-12T14:45:29.427Z,62.30
2019-01-12T14:48:00.662Z,53.00
2019-01-12T14:50:31.623Z,42.53
2019-01-12T14:53:05.934Z,28.70
2019-01-12T14:55:36.809Z,63.27
2019-01-12T14:58:07.958Z,44.30
2019-01-12T15:00:38.894Z,71.03
2019-01-12T15:03:09.758Z,111.80
2019-01-12T15:05:40.658Z,59.13
2019-01-12T15:08:11.624Z,78.00
2019-01-12T15:10:42.496Z,116.30
2019-01-12T15:13:13.402Z,78.23
2019-01-12T15:15:44.326Z,104.50
2019-01-12T15:18:19.602Z,88.10
2019-01-12T15:20:50.486Z,124.40
2019-01-12T15:23:21.446Z,91.60
2019-01-12T15:25:55.219Z,59.57
2019-01-12T15:28:26.067Z,53.37
2019-01-12T15:30:56.982Z,46.70
2019-01-12T15:33:28.291Z,69.73
2019-01-12T15:36:00.405Z,105.10
2019-01-12T15:38:31.272Z,120.67
2019-01-12T15:41:02.142Z,110.77
2019-01-12T15:43:33.057Z,77.07
2019-01-12T15:46:03.957Z,90.00
2019-01-12T15:48:34.895Z,54.83
2019-01-12T15:51:06.080Z,80.30
2019-01-12T15:53:36.935Z,68.97
2019-01-12T15:56:07.800Z,44.80
2019-01-12T15:58:38.708Z,51.73
2019-01-12T16:01:09.583Z,62.93
2019-01-12T16:03:40.916Z,71.67
2019-01-12T16:06:13.553Z,66.40
2019-01-12T16:08:44.626Z,86.03
2019-01-12T16:11:15.510Z,73.97
2019-01-12T16:13:46.464Z,36.40
2019-01-12T16:16:17.369Z,48.90
2019-01-12T16:18:48.236Z,97.70
2019-01-12T16:21:19.202Z,128.47
2019-01-12T16:23:50.066Z,78.13
2019-01-12T16:26:20.922Z,62.27
2019-01-12T16:28:54.957Z,109.97
2019-01-12T16:31:25.875Z,139.90
2019-01-12T16:33:56.793Z,115.20
2019-01-12T16:36:30.375Z,90.97
2019-01-12T16:39:01.268Z,68.67
2019-01-12T16:41:32.183Z,43.80
2019-01-12T16:44:03.166Z,81.10
2019-01-12T16:46:34.035Z,78.07
2019-01-12T16:49:05.006Z,81.00
2019-01-12T16:51:35.983Z,61.23
2019-01-12T16:54:06.846Z,71.97
2019-01-12T16:56:37.729Z,53.27
2019-01-12T16:59:08.663Z,50.80
2019-01-12T17:01:39.527Z,39.43
2019-01-12T17:04:10.477Z,65.63
2019-01-12T17:06:41.375Z,86.23
2019-01-12T17:09:12.231Z,53.47
2019-01-12T17:11:44.752Z,74.53
2019-01-12T17:14:15.617Z,114.63
2019-01-12T17:16:46.502Z,70.20
2019-01-12T17:19:17.360Z,98.33
2019-01-12T17:21:48.269Z,50.97
2019-01-12T17:24:19.252Z,69.47
2019-01-12T17:26:50.151Z,75.20
2019-01-12T17:29:21.057Z,45.77
2019-01-12T17:31:54.859Z,72.53
2019-01-12T17:34:25.734Z,46.27
2019-01-12T17:36:58.843Z,88.37
2019-01-12T17:39:30.069Z,75.10
2019-01-12T17:42:00.947Z,47.93
2019-01-12T17:44:31.928Z,55.87
2019-01-12T17:47:02.795Z,70.27
2019-01-12T17:49:33.815Z,76.80
2019-01-12T17:52:04.739Z,38.23
2019-01-12T17:54:35.613Z,32.30
2019-01-12T17:57:07.012Z,49.47
2019-01-12T17:59:37.932Z,44.17
2019-01-12T18:02:09.180Z,52.07
2019-01-12T18:04:40.050Z,70.60
2019-01-12T18:07:11.076Z,46.87
2019-01-12T18:09:41.973Z,53.70
2019-01-12T18:12:12.845Z,64.23
2019-01-12T18:14:43.801Z,102.60
2019-01-12T18:17:14.783Z,63.60
2019-01-12T18:19:45.644Z,57.50
2019-01-12T18:22:16.610Z,46.83
2019-01-12T18:24:47.523Z,32.57
2019-01-12T18:27:18.388Z,31.43
2019-01-12T18:29:50.298Z,41.40
2019-01-12T18:32:21.174Z,90.97
2019-01-12T18:34:55.118Z,40.77
2019-01-12T18:37:26.154Z,53.93
2019-01-12T18:39:57.016Z,50.87
2019-01-12T18:42:28.361Z,75.40
2019-01-12T18:44:59.415Z,198.33
2019-01-12T18:47:31.301Z,54.77
2019-01-12T18:50:02.160Z,39.03
2019-01-12T18:52:33.075Z,36.73
2019-01-12T18:55:04.045Z,22.57
2019-01-12T18:57:35.069Z,26.23
2019-01-12T19:00:10.080Z,22.07
2019-01-12T19:02:40.919Z,30.10
2019-01-12T19:05:11.830Z,28.67
2019-01-12T19:07:42.826Z,47.10
2019-01-12T19:10:14.066Z,20.20
2019-01-12T19:12:44.983Z,66.93
2019-01-12T19:15:18.777Z,74.67
2019-01-12T19:17:49.659Z,13.53
2019-01-12T19:20:20.640Z,38.37
2019-01-12T19:22:51.659Z,42.53
2019-01-12T19:25:22.634Z,40.90
2019-01-12T19:27:53.515Z,38.80
2019-01-12T19:30:24.931Z,24.50
2019-01-12T19:32:55.813Z,28.90
2019-01-12T19:35:28.384Z,184.40
2019-01-12T19:37:59.475Z,77.87
2019-01-12T19:40:30.341Z,64.17
2019-01-12T19:43:01.213Z,93.40
2019-01-12T19:45:32.210Z,61.43
2019-01-12T19:48:03.144Z,73.27
2019-01-12T19:50:34.127Z,91.67
2019-01-12T19:53:08.195Z,45.43
2019-01-12T19:55:39.182Z,33.67
2019-01-12T19:58:10.053Z,43.83
2019-01-12T20:00:41.097Z,65.27
2019-01-12T20:03:15.163Z,42.47
2019-01-12T20:05:46.076Z,44.50
2019-01-12T20:08:16.967Z,74.17
2019-01-12T20:10:47.962Z,54.33
2019-01-12T20:13:18.853Z,42.73
2019-01-12T20:15:49.783Z,54.73
2019-01-12T20:18:20.722Z,36.37
2019-01-12T20:20:51.840Z,51.20
2019-01-12T20:23:22.774Z,30.93
2019-01-12T20:25:53.675Z,39.97
2019-01-12T20:28:24.894Z,47.70
2019-01-12T20:31:32.822Z,47.07
2019-01-12T20:34:20.810Z,39.30
2019-01-12T20:37:50.673Z,54.03
2019-01-12T20:40:57.488Z,46.47
2019-01-12T20:44:09.473Z,65.90
2019-01-12T20:47:27.662Z,85.93
2019-01-12T20:50:23.107Z,63.30
2019-01-12T20:53:52.804Z,122.93
2019-01-12T20:57:10.260Z,113.63
2019-01-12T21:00:16.004Z,82.23
2019-01-12T21:03:54.176Z,91.33
2019-01-12T21:06:54.434Z,102.20
2019-01-12T21:10:01.507Z,92.90
2019-01-12T21:13:26.834Z,75.43
2019-01-12T21:16:20.953Z,92.30
2019-01-12T21:19:10.738Z,197.43
2019-01-12T21:22:00.438Z,329.43
2019-01-12T21:24:50.042Z,109.80
2019-01-12T21:27:39.389Z,138.70
2019-01-12T21:30:28.942Z,90.23
2019-01-12T21:33:18.336Z,101.33
2019-01-12T21:36:07.558Z,96.97
2019-01-12T21:38:56.855Z,108.63
2019-01-12T21:41:46.392Z,111.93
2019-01-12T21:44:36.215Z,103.33
2019-01-12T21:47:25.452Z,113.17
2019-01-12T21:50:15.273Z,85.43
2019-01-12T21:53:04.481Z,88.97
2019-01-12T21:55:54.084Z,84.53
2019-01-12T21:58:43.754Z,71.90
2019-01-12T22:01:36.377Z,64.50
2019-01-12T22:04:23.512Z,67.57
2019-01-12T22:07:12.946Z,91.80
2019-01-12T22:10:02.360Z,74.90
2019-01-12T22:12:51.763Z,89.60
2019-01-12T22:15:41.027Z,85.93
2019-01-12T22:18:30.096Z,90.77
2019-01-12T22:21:19.269Z,82.50
2019-01-12T22:24:08.531Z,108.53
2019-01-12T22:26:58.132Z,90.30
2019-01-12T22:29:50.018Z,95.33
2019-01-12T22:32:38.146Z,148.00
2019-01-12T22:35:27.050Z,161.63
2019-01-12T22:38:16.760Z,251.27
2019-01-12T22:41:07.704Z,249.93
2019-01-12T22:43:57.874Z,250.47
2019-01-12T22:46:46.651Z,165.90
2019-01-12T22:49:36.171Z,106.87
2019-01-12T22:52:25.010Z,125.33
2019-01-12T22:55:15.045Z,98.70
2019-01-12T22:58:04.717Z,86.13
2019-01-12T23:04:33.233Z,98.53
2019-01-12T23:07:22.716Z,113.80
2019-01-12T23:10:12.125Z,112.70
2019-01-12T23:13:01.343Z,95.83
2019-01-12T23:15:50.655Z,104.87
2019-01-12T23:18:39.964Z,85.83
2019-01-12T23:21:29.203Z,116.70
2019-01-12T23:24:18.490Z,133.80
2019-01-12T23:27:07.853Z,89.37
2019-01-12T23:29:56.628Z,161.43
2019-01-12T23:32:46.054Z,93.37
2019-01-12T23:35:35.775Z,139.93
2019-01-12T23:38:25.260Z,123.97
2019-01-12T23:41:14.529Z,120.27
2019-01-12T23:44:14.928Z,119.77
2019-01-12T23:47:05.127Z,84.13
2019-01-12T23:49:54.584Z,177.77
2019-01-12T23:52:47.026Z,158.63
2019-01-12T23:55:36.534Z,104.37
2019-01-12T23:58:25.817Z,63.43
